sensor_id;sensor_type;location;lat;lon;timestamp;temperature;humidity
57564;DHT22;43400;45.926;6.724;2022-11-20T00:02:14;4.30;92.70
57564;DHT22;43400;45.926;6.724;2022-11-20T00:04:47;4.20;92.60
57564;DHT22;43400;45.926;6.724;2022-11-20T00:07:21;4.20;92.80
57564;DHT22;43400;45.926;6.724;2022-11-20T00:09:52;4.10;93.00
57564;DHT22;43400;45.926;6.724;2022-11-20T00:12:24;4.10;93.10
57564;DHT22;43400;45.926;6.724;2022-11-20T00:14:56;4.00;93.60
57564;DHT22;43400;45.926;6.724;2022-11-20T00:17:28;4.00;94.00
57564;DHT22;43400;45.926;6.724;2022-11-20T00:20:00;3.90;94.00
57564;DHT22;43400;45.926;6.724;2022-11-20T00:22:33;3.90;93.80
57564;DHT22;43400;45.926;6.724;2022-11-20T00:25:04;4.00;93.60
57564;DHT22;43400;45.926;6.724;2022-11-20T00:27:37;4.00;93.70
57564;DHT22;43400;45.926;6.724;2022-11-20T00:30:09;4.00;93.60
57564;DHT22;43400;45.926;6.724;2022-11-20T00:32:41;4.10;93.60
57564;DHT22;43400;45.926;6.724;2022-11-20T00:35:13;4.10;93.60
57564;DHT22;43400;45.926;6.724;2022-11-20T00:37:45;4.10;93.30
57564;DHT22;43400;45.926;6.724;2022-11-20T00:40:17;4.10;93.20
57564;DHT22;43400;45.926;6.724;2022-11-20T00:42:49;4.10;93.00
57564;DHT22;43400;45.926;6.724;2022-11-20T00:45:22;4.20;93.00
57564;DHT22;43400;45.926;6.724;2022-11-20T00:47:54;4.10;92.50
57564;DHT22;43400;45.926;6.724;2022-11-20T00:50:25;4.10;92.60
57564;DHT22;43400;45.926;6.724;2022-11-20T00:52:57;4.10;93.20
57564;DHT22;43400;45.926;6.724;2022-11-20T00:55:29;4.10;93.00
57564;DHT22;43400;45.926;6.724;2022-11-20T00:58:00;4.10;93.20
57564;DHT22;43400;45.926;6.724;2022-11-20T01:00:34;4.20;93.20
57564;DHT22;43400;45.926;6.724;2022-11-20T01:03:05;4.10;92.90
57564;DHT22;43400;45.926;6.724;2022-11-20T01:05:38;4.10;92.50
57564;DHT22;43400;45.926;6.724;2022-11-20T01:08:10;4.00;92.10
57564;DHT22;43400;45.926;6.724;2022-11-20T01:10:42;4.00;92.10
57564;DHT22;43400;45.926;6.724;2022-11-20T01:13:14;4.00;92.20
57564;DHT22;43400;45.926;6.724;2022-11-20T01:15:46;4.00;91.80
57564;DHT22;43400;45.926;6.724;2022-11-20T01:18:18;3.90;92.00
57564;DHT22;43400;45.926;6.724;2022-11-20T01:20:50;3.90;92.00
57564;DHT22;43400;45.926;6.724;2022-11-20T01:23:22;3.80;91.70
57564;DHT22;43400;45.926;6.724;2022-11-20T01:25:53;3.80;91.80
57564;DHT22;43400;45.926;6.724;2022-11-20T01:28:25;3.90;92.00
57564;DHT22;43400;45.926;6.724;2022-11-20T01:30:57;3.80;92.30
57564;DHT22;43400;45.926;6.724;2022-11-20T01:33:29;3.80;92.30
57564;DHT22;43400;45.926;6.724;2022-11-20T01:36:05;3.80;92.90
57564;DHT22;43400;45.926;6.724;2022-11-20T01:38:37;3.80;92.90
57564;DHT22;43400;45.926;6.724;2022-11-20T01:41:10;3.70;93.40
57564;DHT22;43400;45.926;6.724;2022-11-20T01:43:42;3.70;93.20
57564;DHT22;43400;45.926;6.724;2022-11-20T01:46:16;3.70;93.00
57564;DHT22;43400;45.926;6.724;2022-11-20T01:51:45;3.60;93.50
57564;DHT22;43400;45.926;6.724;2022-11-20T01:54:29;3.60;93.70
57564;DHT22;43400;45.926;6.724;2022-11-20T01:57:04;3.60;93.80
57564;DHT22;43400;45.926;6.724;2022-11-20T01:59:40;3.60;93.40
57564;DHT22;43400;45.926;6.724;2022-11-20T02:02:14;3.50;93.10
57564;DHT22;43400;45.926;6.724;2022-11-20T02:04:47;3.50;92.90
57564;DHT22;43400;45.926;6.724;2022-11-20T02:07:21;3.50;93.00
57564;DHT22;43400;45.926;6.724;2022-11-20T02:09:53;3.50;93.00
57564;DHT22;43400;45.926;6.724;2022-11-20T02:12:25;3.50;92.70
57564;DHT22;43400;45.926;6.724;2022-11-20T02:14:57;3.40;93.00
57564;DHT22;43400;45.926;6.724;2022-11-20T02:17:28;3.50;92.70
57564;DHT22;43400;45.926;6.724;2022-11-20T02:20:00;3.50;92.80
57564;DHT22;43400;45.926;6.724;2022-11-20T02:22:39;3.50;93.50
57564;DHT22;43400;45.926;6.724;2022-11-20T02:25:14;3.50;93.30
57564;DHT22;43400;45.926;6.724;2022-11-20T02:27:46;3.40;93.20
57564;DHT22;43400;45.926;6.724;2022-11-20T02:30:18;3.40;93.70
57564;DHT22;43400;45.926;6.724;2022-11-20T02:32:49;3.30;93.60
57564;DHT22;43400;45.926;6.724;2022-11-20T02:38:01;3.30;93.30
57564;DHT22;43400;45.926;6.724;2022-11-20T02:40:34;3.30;93.40
57564;DHT22;43400;45.926;6.724;2022-11-20T02:43:05;3.20;93.90
57564;DHT22;43400;45.926;6.724;2022-11-20T02:45:37;3.10;94.50
57564;DHT22;43400;45.926;6.724;2022-11-20T02:48:09;3.00;94.60
57564;DHT22;43400;45.926;6.724;2022-11-20T02:50:40;3.00;94.50
57564;DHT22;43400;45.926;6.724;2022-11-20T02:53:12;3.00;94.40
57564;DHT22;43400;45.926;6.724;2022-11-20T02:55:44;3.00;94.10
57564;DHT22;43400;45.926;6.724;2022-11-20T02:58:15;3.00;93.90
57564;DHT22;43400;45.926;6.724;2022-11-20T03:00:47;2.90;93.60
57564;DHT22;43400;45.926;6.724;2022-11-20T03:03:19;2.90;94.00
57564;DHT22;43400;45.926;6.724;2022-11-20T03:05:50;2.90;93.90
57564;DHT22;43400;45.926;6.724;2022-11-20T03:08:22;2.80;94.30
57564;DHT22;43400;45.926;6.724;2022-11-20T03:10:53;2.90;94.10
57564;DHT22;43400;45.926;6.724;2022-11-20T03:13:25;2.80;94.10
57564;DHT22;43400;45.926;6.724;2022-11-20T03:15:56;2.70;94.70
57564;DHT22;43400;45.926;6.724;2022-11-20T03:18:28;2.80;94.70
57564;DHT22;43400;45.926;6.724;2022-11-20T03:20:59;2.80;94.80
57564;DHT22;43400;45.926;6.724;2022-11-20T03:23:33;2.90;94.40
57564;DHT22;43400;45.926;6.724;2022-11-20T03:26:09;2.80;94.40
57564;DHT22;43400;45.926;6.724;2022-11-20T03:29:02;2.90;94.70
57564;DHT22;43400;45.926;6.724;2022-11-20T03:31:35;2.90;94.40
57564;DHT22;43400;45.926;6.724;2022-11-20T03:34:08;2.90;94.50
57564;DHT22;43400;45.926;6.724;2022-11-20T03:36:42;2.90;94.80
57564;DHT22;43400;45.926;6.724;2022-11-20T03:39:13;2.90;94.90
57564;DHT22;43400;45.926;6.724;2022-11-20T03:41:45;2.90;95.10
57564;DHT22;43400;45.926;6.724;2022-11-20T03:44:17;3.00;95.00
57564;DHT22;43400;45.926;6.724;2022-11-20T03:46:48;3.00;94.70
57564;DHT22;43400;45.926;6.724;2022-11-20T03:49:19;3.10;94.70
57564;DHT22;43400;45.926;6.724;2022-11-20T03:51:51;3.20;94.60
57564;DHT22;43400;45.926;6.724;2022-11-20T03:54:22;3.10;94.80
57564;DHT22;43400;45.926;6.724;2022-11-20T03:56:54;3.10;95.00
57564;DHT22;43400;45.926;6.724;2022-11-20T03:59:25;3.20;95.50
57564;DHT22;43400;45.926;6.724;2022-11-20T04:01:57;3.20;95.50
57564;DHT22;43400;45.926;6.724;2022-11-20T04:04:29;3.20;95.40
57564;DHT22;43400;45.926;6.724;2022-11-20T04:07:00;3.10;95.40
57564;DHT22;43400;45.926;6.724;2022-11-20T04:09:33;3.10;95.70
57564;DHT22;43400;45.926;6.724;2022-11-20T04:12:04;3.00;96.20
57564;DHT22;43400;45.926;6.724;2022-11-20T04:14:36;3.00;96.90
57564;DHT22;43400;45.926;6.724;2022-11-20T04:17:07;3.00;96.90
57564;DHT22;43400;45.926;6.724;2022-11-20T04:19:39;3.00;97.10
57564;DHT22;43400;45.926;6.724;2022-11-20T04:22:11;3.10;97.40
57564;DHT22;43400;45.926;6.724;2022-11-20T04:24:42;3.10;96.60
57564;DHT22;43400;45.926;6.724;2022-11-20T04:27:14;3.10;97.00
57564;DHT22;43400;45.926;6.724;2022-11-20T04:29:46;3.10;96.90
57564;DHT22;43400;45.926;6.724;2022-11-20T04:32:17;3.10;96.40
57564;DHT22;43400;45.926;6.724;2022-11-20T04:34:49;3.20;95.40
57564;DHT22;43400;45.926;6.724;2022-11-20T04:37:20;3.20;94.80
57564;DHT22;43400;45.926;6.724;2022-11-20T04:39:52;3.20;94.80
57564;DHT22;43400;45.926;6.724;2022-11-20T04:42:23;3.20;95.00
57564;DHT22;43400;45.926;6.724;2022-11-20T04:44:56;3.20;94.70
57564;DHT22;43400;45.926;6.724;2022-11-20T04:47:27;3.30;94.60
57564;DHT22;43400;45.926;6.724;2022-11-20T04:49:59;3.30;94.30
57564;DHT22;43400;45.926;6.724;2022-11-20T04:52:31;3.30;94.30
57564;DHT22;43400;45.926;6.724;2022-11-20T04:55:03;3.30;94.80
57564;DHT22;43400;45.926;6.724;2022-11-20T04:57:35;3.40;94.70
57564;DHT22;43400;45.926;6.724;2022-11-20T05:00:07;3.40;94.50
57564;DHT22;43400;45.926;6.724;2022-11-20T05:02:39;3.40;93.40
57564;DHT22;43400;45.926;6.724;2022-11-20T05:05:10;3.40;93.20
57564;DHT22;43400;45.926;6.724;2022-11-20T05:07:42;3.40;92.80
57564;DHT22;43400;45.926;6.724;2022-11-20T05:10:14;3.50;92.80
57564;DHT22;43400;45.926;6.724;2022-11-20T05:12:45;3.50;93.40
57564;DHT22;43400;45.926;6.724;2022-11-20T05:15:17;3.50;93.50
57564;DHT22;43400;45.926;6.724;2022-11-20T05:17:52;3.50;93.30
57564;DHT22;43400;45.926;6.724;2022-11-20T05:20:24;3.50;92.90
57564;DHT22;43400;45.926;6.724;2022-11-20T05:22:59;3.50;92.70
57564;DHT22;43400;45.926;6.724;2022-11-20T05:25:30;3.60;92.80
57564;DHT22;43400;45.926;6.724;2022-11-20T05:28:02;3.60;93.10
57564;DHT22;43400;45.926;6.724;2022-11-20T05:30:34;3.60;92.80
57564;DHT22;43400;45.926;6.724;2022-11-20T05:33:05;3.60;92.70
57564;DHT22;43400;45.926;6.724;2022-11-20T05:35:37;3.60;92.70
57564;DHT22;43400;45.926;6.724;2022-11-20T05:38:08;3.60;92.50
57564;DHT22;43400;45.926;6.724;2022-11-20T05:40:40;3.60;92.50
57564;DHT22;43400;45.926;6.724;2022-11-20T05:43:11;3.60;92.90
57564;DHT22;43400;45.926;6.724;2022-11-20T05:45:54;3.60;93.30
57564;DHT22;43400;45.926;6.724;2022-11-20T05:48:26;3.60;93.10
57564;DHT22;43400;45.926;6.724;2022-11-20T05:50:59;3.60;93.00
57564;DHT22;43400;45.926;6.724;2022-11-20T05:53:32;3.60;92.80
57564;DHT22;43400;45.926;6.724;2022-11-20T05:56:10;3.60;92.10
57564;DHT22;43400;45.926;6.724;2022-11-20T05:58:42;3.60;91.90
57564;DHT22;43400;45.926;6.724;2022-11-20T06:01:23;3.60;91.90
57564;DHT22;43400;45.926;6.724;2022-11-20T06:03:55;3.60;91.90
57564;DHT22;43400;45.926;6.724;2022-11-20T06:06:27;3.50;91.00
57564;DHT22;43400;45.926;6.724;2022-11-20T06:08:59;3.50;91.40
57564;DHT22;43400;45.926;6.724;2022-11-20T06:11:30;3.50;90.80
57564;DHT22;43400;45.926;6.724;2022-11-20T06:14:02;3.40;90.70
57564;DHT22;43400;45.926;6.724;2022-11-20T06:16:33;3.40;91.20
57564;DHT22;43400;45.926;6.724;2022-11-20T06:19:05;3.30;91.50
57564;DHT22;43400;45.926;6.724;2022-11-20T06:21:36;3.20;91.70
57564;DHT22;43400;45.926;6.724;2022-11-20T06:24:10;3.20;92.00
57564;DHT22;43400;45.926;6.724;2022-11-20T06:26:41;3.10;91.80
57564;DHT22;43400;45.926;6.724;2022-11-20T06:29:13;3.10;91.60
57564;DHT22;43400;45.926;6.724;2022-11-20T06:31:45;3.00;91.90
57564;DHT22;43400;45.926;6.724;2022-11-20T06:34:16;2.90;91.60
57564;DHT22;43400;45.926;6.724;2022-11-20T06:36:48;2.90;91.70
57564;DHT22;43400;45.926;6.724;2022-11-20T06:39:20;2.80;91.50
57564;DHT22;43400;45.926;6.724;2022-11-20T06:41:51;2.80;91.70
57564;DHT22;43400;45.926;6.724;2022-11-20T06:44:23;2.80;91.90
57564;DHT22;43400;45.926;6.724;2022-11-20T06:46:55;2.70;92.00
57564;DHT22;43400;45.926;6.724;2022-11-20T06:49:26;2.60;92.20
57564;DHT22;43400;45.926;6.724;2022-11-20T06:51:58;2.60;92.30
57564;DHT22;43400;45.926;6.724;2022-11-20T06:54:29;2.50;92.80
57564;DHT22;43400;45.926;6.724;2022-11-20T06:57:01;2.50;92.80
57564;DHT22;43400;45.926;6.724;2022-11-20T06:59:32;2.50;92.80
57564;DHT22;43400;45.926;6.724;2022-11-20T07:02:05;2.50;92.90
57564;DHT22;43400;45.926;6.724;2022-11-20T07:04:36;2.40;93.10
57564;DHT22;43400;45.926;6.724;2022-11-20T07:07:08;2.40;93.00
57564;DHT22;43400;45.926;6.724;2022-11-20T07:09:40;2.40;92.80
57564;DHT22;43400;45.926;6.724;2022-11-20T07:12:12;2.40;93.20
57564;DHT22;43400;45.926;6.724;2022-11-20T07:14:43;2.30;93.10
57564;DHT22;43400;45.926;6.724;2022-11-20T07:17:15;2.30;93.20
57564;DHT22;43400;45.926;6.724;2022-11-20T07:19:46;2.30;93.40
57564;DHT22;43400;45.926;6.724;2022-11-20T07:22:18;2.30;93.70
57564;DHT22;43400;45.926;6.724;2022-11-20T07:24:50;2.30;93.40
57564;DHT22;43400;45.926;6.724;2022-11-20T07:27:21;2.30;93.30
57564;DHT22;43400;45.926;6.724;2022-11-20T07:29:53;2.30;93.80
57564;DHT22;43400;45.926;6.724;2022-11-20T07:32:24;2.20;93.50
57564;DHT22;43400;45.926;6.724;2022-11-20T07:34:56;2.20;93.30
57564;DHT22;43400;45.926;6.724;2022-11-20T07:37:28;2.20;93.70
57564;DHT22;43400;45.926;6.724;2022-11-20T07:39:59;2.20;93.60
57564;DHT22;43400;45.926;6.724;2022-11-20T07:42:31;2.20;93.30
57564;DHT22;43400;45.926;6.724;2022-11-20T07:45:02;2.30;93.50
57564;DHT22;43400;45.926;6.724;2022-11-20T07:47:37;2.30;93.20
57564;DHT22;43400;45.926;6.724;2022-11-20T07:50:09;2.30;93.50
57564;DHT22;43400;45.926;6.724;2022-11-20T07:52:41;2.20;93.90
57564;DHT22;43400;45.926;6.724;2022-11-20T07:55:13;2.20;93.80
57564;DHT22;43400;45.926;6.724;2022-11-20T07:57:44;2.20;94.00
57564;DHT22;43400;45.926;6.724;2022-11-20T08:00:16;2.20;94.40
57564;DHT22;43400;45.926;6.724;2022-11-20T08:02:48;2.20;94.40
57564;DHT22;43400;45.926;6.724;2022-11-20T08:05:19;2.20;94.60
57564;DHT22;43400;45.926;6.724;2022-11-20T08:07:51;2.20;94.50
57564;DHT22;43400;45.926;6.724;2022-11-20T08:10:23;2.10;94.20
57564;DHT22;43400;45.926;6.724;2022-11-20T08:12:55;2.20;94.00
57564;DHT22;43400;45.926;6.724;2022-11-20T08:15:26;2.30;94.20
57564;DHT22;43400;45.926;6.724;2022-11-20T08:18:11;2.40;93.90
57564;DHT22;43400;45.926;6.724;2022-11-20T08:20:43;2.40;94.20
57564;DHT22;43400;45.926;6.724;2022-11-20T08:23:15;2.40;93.90
57564;DHT22;43400;45.926;6.724;2022-11-20T08:25:49;2.40;94.00
57564;DHT22;43400;45.926;6.724;2022-11-20T08:28:21;2.50;93.90
57564;DHT22;43400;45.926;6.724;2022-11-20T08:30:58;2.50;93.80
57564;DHT22;43400;45.926;6.724;2022-11-20T08:33:30;2.60;93.60
57564;DHT22;43400;45.926;6.724;2022-11-20T08:36:03;2.60;93.90
57564;DHT22;43400;45.926;6.724;2022-11-20T08:38:34;2.50;93.90
57564;DHT22;43400;45.926;6.724;2022-11-20T08:41:06;2.60;93.80
57564;DHT22;43400;45.926;6.724;2022-11-20T08:43:38;2.60;93.90
57564;DHT22;43400;45.926;6.724;2022-11-20T08:46:10;2.50;94.60
57564;DHT22;43400;45.926;6.724;2022-11-20T08:48:42;2.50;95.20
57564;DHT22;43400;45.926;6.724;2022-11-20T08:51:15;2.50;95.80
57564;DHT22;43400;45.926;6.724;2022-11-20T08:53:46;2.60;95.70
57564;DHT22;43400;45.926;6.724;2022-11-20T08:56:18;2.70;95.30
57564;DHT22;43400;45.926;6.724;2022-11-20T08:58:51;2.70;95.20
57564;DHT22;43400;45.926;6.724;2022-11-20T09:01:23;2.80;95.30
57564;DHT22;43400;45.926;6.724;2022-11-20T09:03:55;2.80;95.20
57564;DHT22;43400;45.926;6.724;2022-11-20T09:06:27;2.80;94.60
57564;DHT22;43400;45.926;6.724;2022-11-20T09:08:58;2.90;94.40
57564;DHT22;43400;45.926;6.724;2022-11-20T09:11:30;3.00;94.30
57564;DHT22;43400;45.926;6.724;2022-11-20T09:14:02;3.10;94.00
57564;DHT22;43400;45.926;6.724;2022-11-20T09:16:33;3.20;93.70
57564;DHT22;43400;45.926;6.724;2022-11-20T09:19:05;3.30;93.80
57564;DHT22;43400;45.926;6.724;2022-11-20T09:21:37;3.50;93.30
57564;DHT22;43400;45.926;6.724;2022-11-20T09:24:08;3.60;92.80
57564;DHT22;43400;45.926;6.724;2022-11-20T09:26:40;3.80;92.70
57564;DHT22;43400;45.926;6.724;2022-11-20T09:29:11;3.90;92.50
57564;DHT22;43400;45.926;6.724;2022-11-20T09:31:43;3.90;92.40
57564;DHT22;43400;45.926;6.724;2022-11-20T09:34:14;3.80;91.70
57564;DHT22;43400;45.926;6.724;2022-11-20T09:36:46;3.70;91.40
57564;DHT22;43400;45.926;6.724;2022-11-20T09:39:18;3.80;91.40
57564;DHT22;43400;45.926;6.724;2022-11-20T09:45:16;3.80;91.60
57564;DHT22;43400;45.926;6.724;2022-11-20T09:53:24;4.00;93.40
57564;DHT22;43400;45.926;6.724;2022-11-20T09:56:01;4.40;93.50
57564;DHT22;43400;45.926;6.724;2022-11-20T09:58:40;5.20;92.30
57564;DHT22;43400;45.926;6.724;2022-11-20T10:01:15;5.80;90.40
57564;DHT22;43400;45.926;6.724;2022-11-20T10:04:33;6.30;88.90
57564;DHT22;43400;45.926;6.724;2022-11-20T10:06:53;6.70;89.70
57564;DHT22;43400;45.926;6.724;2022-11-20T10:09:40;7.00;86.10
57564;DHT22;43400;45.926;6.724;2022-11-20T10:15:22;7.60;80.60
57564;DHT22;43400;45.926;6.724;2022-11-20T10:20:40;11.10;69.70
57564;DHT22;43400;45.926;6.724;2022-11-20T10:26:25;16.10;55.80
57564;DHT22;43400;45.926;6.724;2022-11-20T10:29:13;17.90;49.90
57564;DHT22;43400;45.926;6.724;2022-11-20T10:31:51;18.80;48.00
57564;DHT22;43400;45.926;6.724;2022-11-20T10:34:28;19.60;44.80
57564;DHT22;43400;45.926;6.724;2022-11-20T10:37:15;20.50;43.10
57564;DHT22;43400;45.926;6.724;2022-11-20T10:43:02;21.50;40.70
57564;DHT22;43400;45.926;6.724;2022-11-20T10:48:26;21.80;39.50
57564;DHT22;43400;45.926;6.724;2022-11-20T10:51:35;22.60;39.40
57564;DHT22;43400;45.926;6.724;2022-11-20T11:02:16;24.10;35.30
57564;DHT22;43400;45.926;6.724;2022-11-20T11:04:52;23.90;34.10
57564;DHT22;43400;45.926;6.724;2022-11-20T11:07:30;24.40;33.40
57564;DHT22;43400;45.926;6.724;2022-11-20T11:10:18;24.90;35.20
57564;DHT22;43400;45.926;6.724;2022-11-20T11:12:52;24.50;34.70
57564;DHT22;43400;45.926;6.724;2022-11-20T11:15:35;23.70;35.40
57564;DHT22;43400;45.926;6.724;2022-11-20T11:18:10;23.60;34.50
57564;DHT22;43400;45.926;6.724;2022-11-20T11:20:50;23.40;34.50
57564;DHT22;43400;45.926;6.724;2022-11-20T11:23:36;23.70;34.80
57564;DHT22;43400;45.926;6.724;2022-11-20T11:26:21;23.70;34.60
57564;DHT22;43400;45.926;6.724;2022-11-20T11:28:58;24.00;33.60
57564;DHT22;43400;45.926;6.724;2022-11-20T11:31:34;24.50;32.90
57564;DHT22;43400;45.926;6.724;2022-11-20T11:34:14;24.00;32.10
57564;DHT22;43400;45.926;6.724;2022-11-20T11:36:57;24.10;32.90
57564;DHT22;43400;45.926;6.724;2022-11-20T11:39:29;24.30;32.60
57564;DHT22;43400;45.926;6.724;2022-11-20T11:42:01;24.10;32.10
57564;DHT22;43400;45.926;6.724;2022-11-20T11:44:34;24.10;33.30
57564;DHT22;43400;45.926;6.724;2022-11-20T11:47:26;24.60;34.80
57564;DHT22;43400;45.926;6.724;2022-11-20T11:50:24;24.30;33.60
57564;DHT22;43400;45.926;6.724;2022-11-20T11:53:12;24.80;32.80
57564;DHT22;43400;45.926;6.724;2022-11-20T11:56:07;25.50;32.40
57564;DHT22;43400;45.926;6.724;2022-11-20T11:58:48;25.40;32.60
57564;DHT22;43400;45.926;6.724;2022-11-20T12:01:47;25.30;31.30
57564;DHT22;43400;45.926;6.724;2022-11-20T12:04:37;26.00;31.80
57564;DHT22;43400;45.926;6.724;2022-11-20T12:07:41;25.40;30.30
57564;DHT22;43400;45.926;6.724;2022-11-20T12:10:38;25.00;30.70
57564;DHT22;43400;45.926;6.724;2022-11-20T12:16:12;24.20;32.40
57564;DHT22;43400;45.926;6.724;2022-11-20T12:18:48;24.30;32.90
57564;DHT22;43400;45.926;6.724;2022-11-20T12:32:40;23.10;32.00
57564;DHT22;43400;45.926;6.724;2022-11-20T12:35:25;22.80;31.90
57564;DHT22;43400;45.926;6.724;2022-11-20T12:43:59;23.80;32.60
57564;DHT22;43400;45.926;6.724;2022-11-20T12:46:51;23.30;31.40
57564;DHT22;43400;45.926;6.724;2022-11-20T12:49:33;22.90;32.30
57564;DHT22;43400;45.926;6.724;2022-11-20T13:00:12;23.20;31.60
57564;DHT22;43400;45.926;6.724;2022-11-20T13:03:13;22.90;30.70
57564;DHT22;43400;45.926;6.724;2022-11-20T13:08:25;23.40;30.40
57564;DHT22;43400;45.926;6.724;2022-11-20T13:14:06;24.30;31.30
57564;DHT22;43400;45.926;6.724;2022-11-20T13:19:22;25.80;31.40
57564;DHT22;43400;45.926;6.724;2022-11-20T13:21:55;25.80;31.40
57564;DHT22;43400;45.926;6.724;2022-11-20T13:24:29;26.00;30.50
57564;DHT22;43400;45.926;6.724;2022-11-20T13:29:46;26.30;30.40
57564;DHT22;43400;45.926;6.724;2022-11-20T13:32:20;26.60;30.00
57564;DHT22;43400;45.926;6.724;2022-11-20T13:34:57;26.10;29.80
57564;DHT22;43400;45.926;6.724;2022-11-20T13:37:37;26.40;30.20
57564;DHT22;43400;45.926;6.724;2022-11-20T13:43:07;26.10;30.00
57564;DHT22;43400;45.926;6.724;2022-11-20T13:45:40;26.70;29.20
57564;DHT22;43400;45.926;6.724;2022-11-20T13:48:23;25.70;28.90
57564;DHT22;43400;45.926;6.724;2022-11-20T14:00:13;20.30;34.80
57564;DHT22;43400;45.926;6.724;2022-11-20T14:05:39;19.90;36.30
57564;DHT22;43400;45.926;6.724;2022-11-20T14:08:27;19.10;36.20
57564;DHT22;43400;45.926;6.724;2022-11-20T14:11:12;19.10;37.40
57564;DHT22;43400;45.926;6.724;2022-11-20T14:14:02;18.60;37.80
57564;DHT22;43400;45.926;6.724;2022-11-20T14:16:36;18.60;38.00
57564;DHT22;43400;45.926;6.724;2022-11-20T14:24:39;17.80;42.60
57564;DHT22;43400;45.926;6.724;2022-11-20T14:27:19;17.40;43.10
57564;DHT22;43400;45.926;6.724;2022-11-20T14:29:51;16.70;43.70
57564;DHT22;43400;45.926;6.724;2022-11-20T14:32:28;16.40;43.90
57564;DHT22;43400;45.926;6.724;2022-11-20T14:35:07;15.60;45.90
57564;DHT22;43400;45.926;6.724;2022-11-20T14:37:40;14.90;47.30
57564;DHT22;43400;45.926;6.724;2022-11-20T14:40:32;14.40;49.60
57564;DHT22;43400;45.926;6.724;2022-11-20T14:43:23;13.90;49.70
57564;DHT22;43400;45.926;6.724;2022-11-20T14:46:00;13.70;49.30
57564;DHT22;43400;45.926;6.724;2022-11-20T14:48:49;13.90;49.80
57564;DHT22;43400;45.926;6.724;2022-11-20T14:54:11;13.30;50.90
57564;DHT22;43400;45.926;6.724;2022-11-20T14:57:00;12.50;51.90
57564;DHT22;43400;45.926;6.724;2022-11-20T14:59:33;12.00;54.00
57564;DHT22;43400;45.926;6.724;2022-11-20T15:02:09;11.50;55.30
57564;DHT22;43400;45.926;6.724;2022-11-20T15:05:01;11.00;55.50
57564;DHT22;43400;45.926;6.724;2022-11-20T15:07:35;10.70;56.80
57564;DHT22;43400;45.926;6.724;2022-11-20T15:10:10;10.50;58.30
57564;DHT22;43400;45.926;6.724;2022-11-20T15:13:11;10.30;58.50
57564;DHT22;43400;45.926;6.724;2022-11-20T15:15:47;10.10;59.10
57564;DHT22;43400;45.926;6.724;2022-11-20T15:18:39;10.00;59.90
57564;DHT22;43400;45.926;6.724;2022-11-20T15:21:16;9.80;59.80
57564;DHT22;43400;45.926;6.724;2022-11-20T15:23:48;9.70;60.20
57564;DHT22;43400;45.926;6.724;2022-11-20T15:26:27;9.50;60.20
57564;DHT22;43400;45.926;6.724;2022-11-20T15:28:59;9.40;62.50
57564;DHT22;43400;45.926;6.724;2022-11-20T15:31:31;9.30;64.30
57564;DHT22;43400;45.926;6.724;2022-11-20T15:34:02;9.20;63.00
57564;DHT22;43400;45.926;6.724;2022-11-20T15:36:34;9.00;63.70
57564;DHT22;43400;45.926;6.724;2022-11-20T15:39:06;8.90;64.60
57564;DHT22;43400;45.926;6.724;2022-11-20T15:41:38;8.70;64.20
57564;DHT22;43400;45.926;6.724;2022-11-20T15:44:10;8.60;65.20
57564;DHT22;43400;45.926;6.724;2022-11-20T15:46:42;8.60;64.00
57564;DHT22;43400;45.926;6.724;2022-11-20T15:49:16;8.50;64.30
57564;DHT22;43400;45.926;6.724;2022-11-20T15:51:49;8.50;65.10
57564;DHT22;43400;45.926;6.724;2022-11-20T15:54:22;8.40;66.30
57564;DHT22;43400;45.926;6.724;2022-11-20T15:56:53;8.40;66.70
57564;DHT22;43400;45.926;6.724;2022-11-20T15:59:25;8.30;66.20
57564;DHT22;43400;45.926;6.724;2022-11-20T16:01:56;8.20;67.30
57564;DHT22;43400;45.926;6.724;2022-11-20T16:04:28;8.10;67.50
57564;DHT22;43400;45.926;6.724;2022-11-20T16:06:59;8.10;68.20
57564;DHT22;43400;45.926;6.724;2022-11-20T16:09:31;8.10;68.80
57564;DHT22;43400;45.926;6.724;2022-11-20T16:12:03;8.00;69.30
57564;DHT22;43400;45.926;6.724;2022-11-20T16:14:35;7.90;69.20
57564;DHT22;43400;45.926;6.724;2022-11-20T16:17:06;7.90;69.80
57564;DHT22;43400;45.926;6.724;2022-11-20T16:19:38;7.70;69.10
57564;DHT22;43400;45.926;6.724;2022-11-20T16:22:11;7.80;70.00
57564;DHT22;43400;45.926;6.724;2022-11-20T16:24:42;7.70;69.80
57564;DHT22;43400;45.926;6.724;2022-11-20T16:27:14;7.70;70.00
57564;DHT22;43400;45.926;6.724;2022-11-20T16:29:45;7.70;70.70
57564;DHT22;43400;45.926;6.724;2022-11-20T16:32:17;7.60;71.20
57564;DHT22;43400;45.926;6.724;2022-11-20T16:34:49;7.50;71.80
57564;DHT22;43400;45.926;6.724;2022-11-20T16:37:21;7.40;71.20
57564;DHT22;43400;45.926;6.724;2022-11-20T16:39:52;7.40;72.50
57564;DHT22;43400;45.926;6.724;2022-11-20T16:42:24;7.40;72.30
57564;DHT22;43400;45.926;6.724;2022-11-20T16:44:56;7.50;72.00
57564;DHT22;43400;45.926;6.724;2022-11-20T16:47:27;7.30;72.20
57564;DHT22;43400;45.926;6.724;2022-11-20T16:50:00;7.40;71.00
57564;DHT22;43400;45.926;6.724;2022-11-20T16:52:32;7.40;72.50
57564;DHT22;43400;45.926;6.724;2022-11-20T16:55:04;7.30;72.00
57564;DHT22;43400;45.926;6.724;2022-11-20T16:57:35;7.20;73.70
57564;DHT22;43400;45.926;6.724;2022-11-20T17:00:08;7.20;74.90
57564;DHT22;43400;45.926;6.724;2022-11-20T17:02:39;7.20;75.40
57564;DHT22;43400;45.926;6.724;2022-11-20T17:05:11;7.30;75.00
57564;DHT22;43400;45.926;6.724;2022-11-20T17:07:42;7.30;73.70
57564;DHT22;43400;45.926;6.724;2022-11-20T17:10:14;7.30;73.60
57564;DHT22;43400;45.926;6.724;2022-11-20T17:12:45;7.30;72.90
57564;DHT22;43400;45.926;6.724;2022-11-20T17:15:17;7.30;72.40
57564;DHT22;43400;45.926;6.724;2022-11-20T17:17:48;7.30;73.10
57564;DHT22;43400;45.926;6.724;2022-11-20T17:20:20;7.20;76.10
57564;DHT22;43400;45.926;6.724;2022-11-20T17:22:52;7.20;76.20
57564;DHT22;43400;45.926;6.724;2022-11-20T17:25:24;7.30;75.70
57564;DHT22;43400;45.926;6.724;2022-11-20T17:27:55;7.10;77.40
57564;DHT22;43400;45.926;6.724;2022-11-20T17:30:27;7.10;77.30
57564;DHT22;43400;45.926;6.724;2022-11-20T17:32:58;7.20;76.20
57564;DHT22;43400;45.926;6.724;2022-11-20T17:35:30;7.30;75.50
57564;DHT22;43400;45.926;6.724;2022-11-20T17:38:01;7.30;73.80
57564;DHT22;43400;45.926;6.724;2022-11-20T17:40:32;7.40;74.00
57564;DHT22;43400;45.926;6.724;2022-11-20T17:43:04;7.40;74.30
57564;DHT22;43400;45.926;6.724;2022-11-20T17:45:36;7.30;76.50
57564;DHT22;43400;45.926;6.724;2022-11-20T17:48:07;7.20;75.90
57564;DHT22;43400;45.926;6.724;2022-11-20T17:50:39;7.20;76.70
57564;DHT22;43400;45.926;6.724;2022-11-20T17:53:11;7.10;74.80
57564;DHT22;43400;45.926;6.724;2022-11-20T17:55:42;7.10;76.00
57564;DHT22;43400;45.926;6.724;2022-11-20T17:58:14;7.20;76.70
57564;DHT22;43400;45.926;6.724;2022-11-20T18:00:45;7.10;77.30
57564;DHT22;43400;45.926;6.724;2022-11-20T18:03:17;7.10;77.40
57564;DHT22;43400;45.926;6.724;2022-11-20T18:05:49;7.20;76.40
57564;DHT22;43400;45.926;6.724;2022-11-20T18:08:20;7.20;75.80